createdAt,value
2017-11-22T00:01:55.624Z,99.90
2017-11-22T00:04:21.782Z,99.90
2017-11-22T00:06:47.866Z,99.90
2017-11-22T00:09:14.043Z,99.90
2017-11-22T00:11:40.153Z,99.90
2017-11-22T00:14:07.115Z,99.90
2017-11-22T00:16:33.982Z,99.90
2017-11-22T00:19:00.090Z,99.90
2017-11-22T00:21:26.214Z,99.90
2017-11-22T00:23:52.412Z,99.90
2017-11-22T00:26:19.552Z,99.90
2017-11-22T00:28:46.526Z,99.90
2017-11-22T00:31:12.957Z,99.90
2017-11-22T00:33:42.536Z,99.90
2017-11-22T00:36:08.803Z,99.90
2017-11-22T00:38:35.358Z,99.90
2017-11-22T00:41:02.363Z,99.90
2017-11-22T00:43:28.615Z,99.90
2017-11-22T00:45:54.830Z,99.90
2017-11-22T00:48:21.038Z,99.90
2017-11-22T00:50:48.030Z,99.90
2017-11-22T00:53:20.736Z,99.90
2017-11-22T00:55:47.135Z,99.90
2017-11-22T00:58:15.400Z,99.90
2017-11-22T01:00:42.393Z,99.90
2017-11-22T01:03:08.738Z,99.90
2017-11-22T01:05:35.778Z,99.90
2017-11-22T01:08:02.059Z,99.90
2017-11-22T01:10:28.615Z,99.90
2017-11-22T01:37:41.070Z,99.90
2017-11-22T11:46:21.266Z,99.90
2017-11-22T11:48:47.426Z,95.50
2017-11-22T11:51:13.645Z,95.80
2017-11-22T11:53:39.787Z,95.00
2017-11-22T11:56:06.002Z,95.00
2017-11-22T11:58:32.902Z,94.80
2017-11-22T12:00:59.053Z,94.80
2017-11-22T12:03:25.183Z,94.60
2017-11-22T12:05:52.297Z,94.80
2017-11-22T12:08:19.610Z,95.30
2017-11-22T12:10:45.767Z,94.80
2017-11-22T12:13:11.899Z,95.40
2017-11-22T12:15:38.816Z,95.00
2017-11-22T12:18:04.918Z,95.00
2017-11-22T12:20:31.793Z,95.30
2017-11-22T12:23:03.982Z,95.30
2017-11-22T12:25:30.154Z,95.70
2017-11-22T12:27:56.306Z,96.30
2017-11-22T12:30:22.698Z,94.70
2017-11-22T12:32:48.787Z,94.90
2017-11-22T12:35:14.990Z,94.90
2017-11-22T12:37:41.142Z,94.00
2017-11-22T12:40:07.252Z,94.50
2017-11-22T15:22:51.730Z,93.40
2017-11-22T15:25:17.829Z,93.70
2017-11-22T15:27:44.020Z,94.70
2017-11-22T15:30:10.255Z,93.80
2017-11-22T15:32:36.366Z,93.80
2017-11-22T15:35:02.468Z,93.20
2017-11-22T15:37:29.333Z,94.00
2017-11-22T15:39:55.491Z,94.00
2017-11-22T15:42:21.682Z,93.50
2017-11-22T15:44:47.806Z,93.60
2017-11-22T15:47:13.952Z,93.50
2017-11-22T15:49:40.854Z,93.50
2017-11-22T15:52:06.949Z,92.70
2017-11-22T15:54:33.074Z,92.90
2017-11-22T15:56:59.178Z,93.00
2017-11-22T15:59:25.277Z,92.20
2017-11-22T16:01:51.538Z,92.50
2017-11-22T16:04:17.700Z,92.80
2017-11-22T16:06:44.518Z,92.10
2017-11-22T16:09:11.479Z,92.10
2017-11-22T16:11:38.345Z,92.60
2017-11-22T16:14:04.461Z,92.60
2017-11-22T16:16:30.599Z,91.20
2017-11-22T16:18:56.910Z,91.20
2017-11-22T16:21:23.016Z,91.20
2017-11-22T16:23:49.167Z,90.50
2017-11-22T16:26:15.291Z,92.00
2017-11-22T16:28:42.400Z,89.80
2017-11-22T16:31:08.540Z,90.50
2017-11-22T16:33:34.695Z,90.50
2017-11-22T16:36:00.835Z,91.30
2017-11-22T16:38:27.014Z,91.50
2017-11-22T16:40:53.101Z,90.60
2017-11-22T16:43:19.386Z,88.90
2017-11-22T16:45:45.572Z,88.50
2017-11-22T16:48:11.787Z,89.50
2017-11-22T16:50:37.990Z,89.60
2017-11-22T16:53:04.846Z,89.50
2017-11-22T16:55:30.954Z,89.60
2017-11-22T16:57:57.067Z,89.50
2017-11-22T17:00:23.199Z,89.50
2017-11-22T17:02:49.333Z,89.70
2017-11-22T17:05:15.487Z,90.20
2017-11-22T17:07:41.627Z,90.30
2017-11-22T17:10:08.008Z,90.30
2017-11-22T17:12:34.233Z,90.80
2017-11-22T17:15:00.362Z,89.00
2017-11-22T17:17:26.493Z,88.80
2017-11-22T17:19:53.070Z,87.80
2017-11-22T17:22:20.422Z,88.30
2017-11-22T17:24:46.688Z,88.30
2017-11-22T17:27:12.836Z,88.00
2017-11-22T17:29:40.260Z,88.20
2017-11-22T17:32:06.380Z,89.00
2017-11-22T17:34:32.482Z,87.40
2017-11-22T17:36:58.694Z,87.60
2017-11-22T17:39:24.809Z,88.30
2017-11-22T17:41:50.900Z,87.80
2017-11-22T17:44:17.055Z,87.20
2017-11-22T17:46:43.183Z,87.40
2017-11-22T17:49:09.358Z,87.40
2017-11-22T17:51:35.587Z,89.40
2017-11-22T17:54:01.731Z,89.80
2017-11-22T17:56:28.029Z,90.10
2017-11-22T17:58:54.209Z,91.10
2017-11-22T18:01:20.327Z,91.80
2017-11-22T18:03:46.424Z,91.10
2017-11-22T18:40:46.534Z,92.20
2017-11-22T18:43:12.734Z,99.90
2017-11-22T18:45:38.882Z,99.70
2017-11-22T18:48:05.163Z,99.90
2017-11-22T18:50:31.425Z,99.90
2017-11-22T18:52:58.292Z,99.70
2017-11-22T18:55:24.411Z,99.70
2017-11-22T18:57:51.518Z,99.90
2017-11-22T19:00:17.612Z,99.90
2017-11-22T19:02:43.762Z,99.90
2017-11-22T19:05:10.649Z,99.90
2017-11-22T19:07:36.744Z,99.90
2017-11-22T19:10:03.619Z,99.90
2017-11-22T19:12:30.546Z,99.90
2017-11-22T19:14:57.421Z,99.90
